sensor_id;sensor_type;location;lat;lon;timestamp;temperature;humidity
59703;DHT22;45570;48.782;8.332;2022-09-29T06:28:23;8.00;99.90
59703;DHT22;45570;48.782;8.332;2022-09-29T06:55:54;8.50;99.90
59703;DHT22;45570;48.782;8.332;2022-09-29T07:09:41;8.70;99.90
59703;DHT22;45570;48.782;8.332;2022-09-29T07:12:10;8.80;99.90
59703;DHT22;45570;48.782;8.332;2022-09-29T07:14:39;8.90;99.90
59703;DHT22;45570;48.782;8.332;2022-09-29T07:17:07;9.00;99.90
59703;DHT22;45570;48.782;8.332;2022-09-29T07:19:36;9.00;99.90
59703;DHT22;45570;48.782;8.332;2022-09-29T07:22:04;9.10;99.90
59703;DHT22;45570;48.782;8.332;2022-09-29T07:24:35;9.10;99.90
59703;DHT22;45570;48.782;8.332;2022-09-29T07:27:05;9.10;99.90
59703;DHT22;45570;48.782;8.332;2022-09-29T07:29:35;9.10;99.90
59703;DHT22;45570;48.782;8.332;2022-09-29T07:32:04;9.10;99.90
59703;DHT22;45570;48.782;8.332;2022-09-29T07:34:36;9.20;99.90
59703;DHT22;45570;48.782;8.332;2022-09-29T07:37:04;9.30;99.90
59703;DHT22;45570;48.782;8.332;2022-09-29T07:39:33;9.40;99.90
59703;DHT22;45570;48.782;8.332;2022-09-29T07:42:02;9.60;99.90
59703;DHT22;45570;48.782;8.332;2022-09-29T07:44:36;9.60;99.90
59703;DHT22;45570;48.782;8.332;2022-09-29T07:47:05;9.70;99.90
59703;DHT22;45570;48.782;8.332;2022-09-29T07:49:33;9.90;99.90
59703;DHT22;45570;48.782;8.332;2022-09-29T07:52:02;9.90;99.90
59703;DHT22;45570;48.782;8.332;2022-09-29T07:54:31;10.00;99.90
59703;DHT22;45570;48.782;8.332;2022-09-29T07:56:59;10.10;99.90
59703;DHT22;45570;48.782;8.332;2022-09-29T07:59:30;10.10;99.90
59703;DHT22;45570;48.782;8.332;2022-09-29T08:02:00;10.30;99.90
59703;DHT22;45570;48.782;8.332;2022-09-29T08:04:30;10.50;99.90
59703;DHT22;45570;48.782;8.332;2022-09-29T08:06:59;10.60;99.90
59703;DHT22;45570;48.782;8.332;2022-09-29T08:09:27;10.90;99.90
59703;DHT22;45570;48.782;8.332;2022-09-29T08:12:07;11.10;99.90
59703;DHT22;45570;48.782;8.332;2022-09-29T08:14:36;11.40;99.90
59703;DHT22;45570;48.782;8.332;2022-09-29T08:17:11;11.60;99.90
59703;DHT22;45570;48.782;8.332;2022-09-29T08:19:40;11.70;99.90
59703;DHT22;45570;48.782;8.332;2022-09-29T08:22:08;11.90;99.90
59703;DHT22;45570;48.782;8.332;2022-09-29T08:24:37;12.20;99.90
59703;DHT22;45570;48.782;8.332;2022-09-29T08:27:06;12.60;99.90
59703;DHT22;45570;48.782;8.332;2022-09-29T08:29:45;13.10;99.90
59703;DHT22;45570;48.782;8.332;2022-09-29T08:32:15;13.40;99.90
59703;DHT22;45570;48.782;8.332;2022-09-29T08:34:44;13.60;99.90
59703;DHT22;45570;48.782;8.332;2022-09-29T08:37:13;13.90;99.90
59703;DHT22;45570;48.782;8.332;2022-09-29T08:39:41;14.30;99.90
59703;DHT22;45570;48.782;8.332;2022-09-29T08:42:16;14.30;99.90
59703;DHT22;45570;48.782;8.332;2022-09-29T08:44:50;14.20;99.90
59703;DHT22;45570;48.782;8.332;2022-09-29T08:47:40;14.50;99.90
59703;DHT22;45570;48.782;8.332;2022-09-29T08:50:21;15.20;99.90
59703;DHT22;45570;48.782;8.332;2022-09-29T08:52:55;15.60;99.90
59703;DHT22;45570;48.782;8.332;2022-09-29T08:55:30;15.80;99.90
59703;DHT22;45570;48.782;8.332;2022-09-29T08:58:01;15.60;99.90
59703;DHT22;45570;48.782;8.332;2022-09-29T09:00:34;15.80;99.90
59703;DHT22;45570;48.782;8.332;2022-09-29T09:03:20;15.90;99.90
59703;DHT22;45570;48.782;8.332;2022-09-29T09:06:11;16.20;99.90
59703;DHT22;45570;48.782;8.332;2022-09-29T09:08:52;16.50;99.90
59703;DHT22;45570;48.782;8.332;2022-09-29T09:11:32;16.60;99.90
59703;DHT22;45570;48.782;8.332;2022-09-29T09:14:12;16.80;99.90
59703;DHT22;45570;48.782;8.332;2022-09-29T09:16:51;16.80;99.90
59703;DHT22;45570;48.782;8.332;2022-09-29T09:19:52;16.80;99.90
59703;DHT22;45570;48.782;8.332;2022-09-29T09:22:33;16.60;99.90
59703;DHT22;45570;48.782;8.332;2022-09-29T09:25:11;16.70;99.90
59703;DHT22;45570;48.782;8.332;2022-09-29T09:27:45;17.00;99.90
59703;DHT22;45570;48.782;8.332;2022-09-29T09:30:17;17.10;99.90
59703;DHT22;45570;48.782;8.332;2022-09-29T09:32:49;16.90;99.90
59703;DHT22;45570;48.782;8.332;2022-09-29T09:35:28;16.90;99.90
59703;DHT22;45570;48.782;8.332;2022-09-29T09:38:01;16.70;99.90
59703;DHT22;45570;48.782;8.332;2022-09-29T09:40:38;16.60;99.90
59703;DHT22;45570;48.782;8.332;2022-09-29T09:43:12;17.00;99.90
59703;DHT22;45570;48.782;8.332;2022-09-29T09:45:49;17.40;99.90
59703;DHT22;45570;48.782;8.332;2022-09-29T09:48:24;17.60;99.90
59703;DHT22;45570;48.782;8.332;2022-09-29T09:51:19;17.90;99.90
59703;DHT22;45570;48.782;8.332;2022-09-29T09:53:49;18.40;99.90
59703;DHT22;45570;48.782;8.332;2022-09-29T09:56:27;18.50;99.90
59703;DHT22;45570;48.782;8.332;2022-09-29T09:59:08;18.70;99.90
59703;DHT22;45570;48.782;8.332;2022-09-29T10:01:40;18.30;99.90
59703;DHT22;45570;48.782;8.332;2022-09-29T10:04:11;17.80;99.90
59703;DHT22;45570;48.782;8.332;2022-09-29T10:06:42;17.90;99.90
59703;DHT22;45570;48.782;8.332;2022-09-29T10:09:13;17.80;99.90
59703;DHT22;45570;48.782;8.332;2022-09-29T10:11:43;17.70;99.90
59703;DHT22;45570;48.782;8.332;2022-09-29T10:14:14;17.10;99.90
59703;DHT22;45570;48.782;8.332;2022-09-29T10:16:47;16.70;99.90
59703;DHT22;45570;48.782;8.332;2022-09-29T10:19:20;16.20;99.90
59703;DHT22;45570;48.782;8.332;2022-09-29T10:21:51;15.70;99.90
59703;DHT22;45570;48.782;8.332;2022-09-29T10:24:21;15.60;99.90
59703;DHT22;45570;48.782;8.332;2022-09-29T10:26:53;15.40;99.90
59703;DHT22;45570;48.782;8.332;2022-09-29T10:29:27;15.10;99.90
59703;DHT22;45570;48.782;8.332;2022-09-29T10:32:07;14.80;99.90
59703;DHT22;45570;48.782;8.332;2022-09-29T10:34:38;14.70;99.90
59703;DHT22;45570;48.782;8.332;2022-09-29T10:37:20;14.50;99.90
59703;DHT22;45570;48.782;8.332;2022-09-29T10:40:03;14.20;99.90
59703;DHT22;45570;48.782;8.332;2022-09-29T10:42:34;14.10;99.90
59703;DHT22;45570;48.782;8.332;2022-09-29T10:45:11;14.10;99.90
59703;DHT22;45570;48.782;8.332;2022-09-29T10:47:41;14.10;99.90
59703;DHT22;45570;48.782;8.332;2022-09-29T10:50:14;14.20;99.90
59703;DHT22;45570;48.782;8.332;2022-09-29T10:52:49;14.20;99.90
59703;DHT22;45570;48.782;8.332;2022-09-29T10:55:21;14.30;99.90
59703;DHT22;45570;48.782;8.332;2022-09-29T10:57:50;14.40;99.90
59703;DHT22;45570;48.782;8.332;2022-09-29T11:00:28;14.30;99.90
59703;DHT22;45570;48.782;8.332;2022-09-29T11:03:05;14.40;99.90
59703;DHT22;45570;48.782;8.332;2022-09-29T11:05:35;14.30;99.90
59703;DHT22;45570;48.782;8.332;2022-09-29T11:08:10;14.20;99.90
59703;DHT22;45570;48.782;8.332;2022-09-29T11:10:40;14.10;99.90
59703;DHT22;45570;48.782;8.332;2022-09-29T11:13:34;14.10;99.90
59703;DHT22;45570;48.782;8.332;2022-09-29T11:16:05;14.00;99.90
59703;DHT22;45570;48.782;8.332;2022-09-29T11:18:41;13.90;99.90
59703;DHT22;45570;48.782;8.332;2022-09-29T11:21:34;14.00;99.90
59703;DHT22;45570;48.782;8.332;2022-09-29T11:24:14;13.90;99.90
59703;DHT22;45570;48.782;8.332;2022-09-29T11:26:48;14.00;99.90
59703;DHT22;45570;48.782;8.332;2022-09-29T11:29:26;14.10;99.90
59703;DHT22;45570;48.782;8.332;2022-09-29T11:32:12;14.20;99.90
59703;DHT22;45570;48.782;8.332;2022-09-29T11:34:57;14.30;99.90
59703;DHT22;45570;48.782;8.332;2022-09-29T11:37:55;14.40;99.90
59703;DHT22;45570;48.782;8.332;2022-09-29T11:40:34;14.20;99.90
59703;DHT22;45570;48.782;8.332;2022-09-29T11:43:21;14.30;99.90
59703;DHT22;45570;48.782;8.332;2022-09-29T11:45:59;14.30;99.90
59703;DHT22;45570;48.782;8.332;2022-09-29T11:48:45;14.40;99.90
59703;DHT22;45570;48.782;8.332;2022-09-29T11:51:25;14.40;99.90
59703;DHT22;45570;48.782;8.332;2022-09-29T11:54:16;14.40;99.90
59703;DHT22;45570;48.782;8.332;2022-09-29T11:56:54;14.40;99.90
59703;DHT22;45570;48.782;8.332;2022-09-29T11:59:40;14.50;99.90
59703;DHT22;45570;48.782;8.332;2022-09-29T12:02:32;14.50;99.90
59703;DHT22;45570;48.782;8.332;2022-09-29T12:05:13;14.60;99.90
59703;DHT22;45570;48.782;8.332;2022-09-29T12:07:53;14.60;99.90
59703;DHT22;45570;48.782;8.332;2022-09-29T12:10:44;14.70;99.90
59703;DHT22;45570;48.782;8.332;2022-09-29T12:13:21;14.70;99.90
59703;DHT22;45570;48.782;8.332;2022-09-29T12:15:54;14.70;99.90
59703;DHT22;45570;48.782;8.332;2022-09-29T12:18:25;14.70;99.90
59703;DHT22;45570;48.782;8.332;2022-09-29T12:20:56;14.70;99.90
59703;DHT22;45570;48.782;8.332;2022-09-29T12:23:27;14.60;99.90
59703;DHT22;45570;48.782;8.332;2022-09-29T12:26:01;14.60;99.90
59703;DHT22;45570;48.782;8.332;2022-09-29T12:28:37;14.50;99.90
59703;DHT22;45570;48.782;8.332;2022-09-29T12:31:10;14.60;99.90
59703;DHT22;45570;48.782;8.332;2022-09-29T12:33:42;14.50;99.90
59703;DHT22;45570;48.782;8.332;2022-09-29T12:36:24;14.60;99.90
59703;DHT22;45570;48.782;8.332;2022-09-29T12:39:33;14.50;99.90
59703;DHT22;45570;48.782;8.332;2022-09-29T12:42:19;14.60;99.90
59703;DHT22;45570;48.782;8.332;2022-09-29T12:44:57;14.50;99.90
59703;DHT22;45570;48.782;8.332;2022-09-29T12:47:46;14.50;99.90
59703;DHT22;45570;48.782;8.332;2022-09-29T12:50:18;14.50;99.90
59703;DHT22;45570;48.782;8.332;2022-09-29T12:52:53;14.50;99.90
59703;DHT22;45570;48.782;8.332;2022-09-29T12:55:30;14.40;99.90
59703;DHT22;45570;48.782;8.332;2022-09-29T12:58:06;14.40;99.90
59703;DHT22;45570;48.782;8.332;2022-09-29T13:00:38;14.40;99.90
59703;DHT22;45570;48.782;8.332;2022-09-29T13:03:38;14.30;99.90
59703;DHT22;45570;48.782;8.332;2022-09-29T13:09:37;14.20;99.90
59703;DHT22;45570;48.782;8.332;2022-09-29T13:12:24;14.10;99.90
59703;DHT22;45570;48.782;8.332;2022-09-29T13:15:08;14.10;99.90
59703;DHT22;45570;48.782;8.332;2022-09-29T13:17:58;14.00;99.90
59703;DHT22;45570;48.782;8.332;2022-09-29T13:20:38;14.10;99.90
59703;DHT22;45570;48.782;8.332;2022-09-29T13:23:46;13.90;99.90
59703;DHT22;45570;48.782;8.332;2022-09-29T13:26:48;13.90;99.90
59703;DHT22;45570;48.782;8.332;2022-09-29T13:29:23;13.80;99.90
59703;DHT22;45570;48.782;8.332;2022-09-29T13:31:55;13.80;99.90
59703;DHT22;45570;48.782;8.332;2022-09-29T13:34:30;13.90;99.90
59703;DHT22;45570;48.782;8.332;2022-09-29T13:37:07;14.00;99.90
59703;DHT22;45570;48.782;8.332;2022-09-29T13:39:41;13.80;99.90
59703;DHT22;45570;48.782;8.332;2022-09-29T13:42:38;13.50;99.90
59703;DHT22;45570;48.782;8.332;2022-09-29T13:45:38;13.40;99.90
59703;DHT22;45570;48.782;8.332;2022-09-29T13:48:36;13.30;99.90
59703;DHT22;45570;48.782;8.332;2022-09-29T13:54:30;13.10;99.90
59703;DHT22;45570;48.782;8.332;2022-09-29T14:00:24;12.70;99.90
59703;DHT22;45570;48.782;8.332;2022-09-29T14:03:02;12.60;99.90
59703;DHT22;45570;48.782;8.332;2022-09-29T14:06:05;12.70;99.90
59703;DHT22;45570;48.782;8.332;2022-09-29T14:08:58;12.70;99.90
59703;DHT22;45570;48.782;8.332;2022-09-29T14:11:33;12.80;99.90
59703;DHT22;45570;48.782;8.332;2022-09-29T14:14:04;12.80;99.90
59703;DHT22;45570;48.782;8.332;2022-09-29T14:16:53;12.90;99.90
59703;DHT22;45570;48.782;8.332;2022-09-29T14:19:41;13.00;99.90
59703;DHT22;45570;48.782;8.332;2022-09-29T14:28:33;13.10;99.90
59703;DHT22;45570;48.782;8.332;2022-09-29T14:31:03;13.00;99.90
59703;DHT22;45570;48.782;8.332;2022-09-29T14:33:35;13.00;99.90
59703;DHT22;45570;48.782;8.332;2022-09-29T14:36:09;13.10;99.90
59703;DHT22;45570;48.782;8.332;2022-09-29T14:38:42;13.20;99.90
59703;DHT22;45570;48.782;8.332;2022-09-29T14:41:39;13.20;99.90
59703;DHT22;45570;48.782;8.332;2022-09-29T14:44:11;13.00;99.90
59703;DHT22;45570;48.782;8.332;2022-09-29T14:47:00;13.00;99.90
59703;DHT22;45570;48.782;8.332;2022-09-29T14:50:16;12.90;99.90
59703;DHT22;45570;48.782;8.332;2022-09-29T14:53:25;13.10;99.90
59703;DHT22;45570;48.782;8.332;2022-09-29T14:56:07;13.10;99.90
59703;DHT22;45570;48.782;8.332;2022-09-29T14:58:51;13.10;99.90
59703;DHT22;45570;48.782;8.332;2022-09-29T15:01:28;13.10;99.90
59703;DHT22;45570;48.782;8.332;2022-09-29T15:04:04;13.10;99.90
59703;DHT22;45570;48.782;8.332;2022-09-29T15:06:33;13.20;99.90
59703;DHT22;45570;48.782;8.332;2022-09-29T15:09:12;13.20;99.90
59703;DHT22;45570;48.782;8.332;2022-09-29T15:11:47;13.20;99.90
59703;DHT22;45570;48.782;8.332;2022-09-29T15:14:23;13.20;99.90
59703;DHT22;45570;48.782;8.332;2022-09-29T15:17:07;13.20;99.90
59703;DHT22;45570;48.782;8.332;2022-09-29T15:19:57;13.20;99.90
59703;DHT22;45570;48.782;8.332;2022-09-29T15:22:44;13.10;99.90
59703;DHT22;45570;48.782;8.332;2022-09-29T15:25:21;13.10;99.90
59703;DHT22;45570;48.782;8.332;2022-09-29T15:27:59;13.10;99.90
59703;DHT22;45570;48.782;8.332;2022-09-29T15:30:30;13.20;99.90
59703;DHT22;45570;48.782;8.332;2022-09-29T15:33:22;13.20;99.90
59703;DHT22;45570;48.782;8.332;2022-09-29T15:35:55;13.20;99.90
59703;DHT22;45570;48.782;8.332;2022-09-29T15:38:33;13.20;99.90
59703;DHT22;45570;48.782;8.332;2022-09-29T15:41:13;13.20;99.90
59703;DHT22;45570;48.782;8.332;2022-09-29T15:43:52;13.20;99.90
59703;DHT22;45570;48.782;8.332;2022-09-29T15:46:23;13.20;99.90
59703;DHT22;45570;48.782;8.332;2022-09-29T15:49:15;13.20;99.90
59703;DHT22;45570;48.782;8.332;2022-09-29T15:51:54;13.10;99.90
59703;DHT22;45570;48.782;8.332;2022-09-29T15:54:24;13.10;99.90
59703;DHT22;45570;48.782;8.332;2022-09-29T15:56:53;13.10;99.90
59703;DHT22;45570;48.782;8.332;2022-09-29T15:59:41;13.00;99.90
59703;DHT22;45570;48.782;8.332;2022-09-29T16:02:17;12.90;99.90
59703;DHT22;45570;48.782;8.332;2022-09-29T16:04:51;12.90;99.90
59703;DHT22;45570;48.782;8.332;2022-09-29T16:07:23;12.90;99.90
59703;DHT22;45570;48.782;8.332;2022-09-29T16:10:02;12.90;99.90
59703;DHT22;45570;48.782;8.332;2022-09-29T16:12:36;12.80;99.90
59703;DHT22;45570;48.782;8.332;2022-09-29T16:15:08;12.80;99.90
59703;DHT22;45570;48.782;8.332;2022-09-29T16:17:39;12.80;99.90
59703;DHT22;45570;48.782;8.332;2022-09-29T16:20:14;12.80;99.90
59703;DHT22;45570;48.782;8.332;2022-09-29T16:22:47;12.70;99.90
59703;DHT22;45570;48.782;8.332;2022-09-29T16:25:23;12.70;99.90
59703;DHT22;45570;48.782;8.332;2022-09-29T16:27:54;12.70;99.90
59703;DHT22;45570;48.782;8.332;2022-09-29T16:30:25;12.70;99.90
59703;DHT22;45570;48.782;8.332;2022-09-29T16:33:00;12.60;99.90
59703;DHT22;45570;48.782;8.332;2022-09-29T16:35:39;12.50;99.90
59703;DHT22;45570;48.782;8.332;2022-09-29T16:38:14;12.50;99.90
59703;DHT22;45570;48.782;8.332;2022-09-29T16:40:44;12.50;99.90
59703;DHT22;45570;48.782;8.332;2022-09-29T16:43:19;12.40;99.90
59703;DHT22;45570;48.782;8.332;2022-09-29T16:45:50;12.40;99.90
59703;DHT22;45570;48.782;8.332;2022-09-29T16:48:20;12.30;99.90
59703;DHT22;45570;48.782;8.332;2022-09-29T16:50:53;12.30;99.90
59703;DHT22;45570;48.782;8.332;2022-09-29T16:53:26;12.20;99.90
59703;DHT22;45570;48.782;8.332;2022-09-29T16:55:57;12.20;99.90
59703;DHT22;45570;48.782;8.332;2022-09-29T16:58:27;12.10;99.90
59703;DHT22;45570;48.782;8.332;2022-09-29T17:00:56;12.00;99.90
59703;DHT22;45570;48.782;8.332;2022-09-29T17:03:25;12.00;99.90
59703;DHT22;45570;48.782;8.332;2022-09-29T17:05:56;12.00;99.90
59703;DHT22;45570;48.782;8.332;2022-09-29T17:08:29;11.90;99.90
59703;DHT22;45570;48.782;8.332;2022-09-29T17:11:00;11.90;99.90
59703;DHT22;45570;48.782;8.332;2022-09-29T17:13:32;11.90;99.90
59703;DHT22;45570;48.782;8.332;2022-09-29T17:16:04;11.90;99.90
59703;DHT22;45570;48.782;8.332;2022-09-29T17:18:34;11.80;99.90
59703;DHT22;45570;48.782;8.332;2022-09-29T17:21:04;11.80;99.90
59703;DHT22;45570;48.782;8.332;2022-09-29T17:23:33;11.70;99.90
59703;DHT22;45570;48.782;8.332;2022-09-29T17:26:02;11.70;99.90
59703;DHT22;45570;48.782;8.332;2022-09-29T17:28:44;11.70;99.90
59703;DHT22;45570;48.782;8.332;2022-09-29T17:31:13;11.70;99.90
59703;DHT22;45570;48.782;8.332;2022-09-29T17:33:41;11.70;99.90
59703;DHT22;45570;48.782;8.332;2022-09-29T17:36:12;11.60;99.90
59703;DHT22;45570;48.782;8.332;2022-09-29T17:38:41;11.60;99.90
59703;DHT22;45570;48.782;8.332;2022-09-29T17:41:10;11.60;99.90
59703;DHT22;45570;48.782;8.332;2022-09-29T17:43:42;11.60;99.90
59703;DHT22;45570;48.782;8.332;2022-09-29T17:46:14;11.50;99.90
59703;DHT22;45570;48.782;8.332;2022-09-29T17:48:43;11.50;99.90
59703;DHT22;45570;48.782;8.332;2022-09-29T17:51:14;11.40;99.90
59703;DHT22;45570;48.782;8.332;2022-09-29T17:53:44;11.40;99.90
59703;DHT22;45570;48.782;8.332;2022-09-29T17:56:18;11.30;99.90
59703;DHT22;45570;48.782;8.332;2022-09-29T17:58:48;11.30;99.90
59703;DHT22;45570;48.782;8.332;2022-09-29T18:01:19;11.30;99.90
59703;DHT22;45570;48.782;8.332;2022-09-29T18:03:49;11.30;99.90
59703;DHT22;45570;48.782;8.332;2022-09-29T18:06:20;11.20;99.90
59703;DHT22;45570;48.782;8.332;2022-09-29T18:08:52;11.20;99.90
59703;DHT22;45570;48.782;8.332;2022-09-29T18:11:22;11.20;99.90
59703;DHT22;45570;48.782;8.332;2022-09-29T18:13:52;11.10;99.90
59703;DHT22;45570;48.782;8.332;2022-09-29T18:16:22;11.10;99.90
59703;DHT22;45570;48.782;8.332;2022-09-29T18:18:52;11.10;99.90
59703;DHT22;45570;48.782;8.332;2022-09-29T18:21:26;11.10;99.90
59703;DHT22;45570;48.782;8.332;2022-09-29T18:23:55;11.10;99.90
59703;DHT22;45570;48.782;8.332;2022-09-29T18:26:24;11.00;99.90
59703;DHT22;45570;48.782;8.332;2022-09-29T18:28:53;10.90;99.90
59703;DHT22;45570;48.782;8.332;2022-09-29T18:31:24;10.90;99.90
59703;DHT22;45570;48.782;8.332;2022-09-29T18:33:54;11.00;99.90
59703;DHT22;45570;48.782;8.332;2022-09-29T18:36:23;11.00;99.90
59703;DHT22;45570;48.782;8.332;2022-09-29T18:38:53;11.00;99.90
59703;DHT22;45570;48.782;8.332;2022-09-29T18:41:21;10.90;99.90
59703;DHT22;45570;48.782;8.332;2022-09-29T18:43:51;10.90;99.90
